Time;durP1;ratioP1;P1;durP2;ratioP2;P2;SDS_P1;SDS_P2;PMS_P1;PMS_P2;Temp;Humidity;BMP_temperature;BMP_pressure;BME280_temperature;BME280_humidity;BME280_pressure;Samples;Min_cycle;Max_cycle;Signal;HPM_P1;HPM_P2
2023/07/07 00:01:23;;;;;;;5.03;4.27;;;;;;;;;;5049559;28;20192;-83
2023/07/07 00:03:49;;;;;;;6.03;4.67;;;;;;;;;;5052570;28;20192;-84
2023/07/07 00:06:16;;;;;;;6.23;5.00;;;;;;;;;;5053229;28;20251;-83
2023/07/07 00:08:42;;;;;;;5.03;4.60;;;;;;;;;;5049302;28;20184;-84
2023/07/07 00:11:08;;;;;;;6.83;4.70;;;;;;;;;;5032555;28;20207;-84
2023/07/07 00:13:34;;;;;;;7.10;4.83;;;;;;;;;;5036586;28;20187;-83
2023/07/07 00:16:00;;;;;;;8.47;4.97;;;;;;;;;;5052775;28;20237;-84
2023/07/07 00:18:26;;;;;;;6.07;4.80;;;;;;;;;;5034191;28;20189;-83
2023/07/07 00:20:56;;;;;;;5.20;4.50;;;;;;;;;;5030439;28;20199;-83
2023/07/07 00:23:22;;;;;;;5.30;4.80;;;;;;;;;;5047093;28;20184;-84
2023/07/07 00:26:01;;;;;;;6.77;4.87;;;;;;;;;;5056454;28;20269;-84
2023/07/07 00:28:27;;;;;;;5.33;4.83;;;;;;;;;;5040725;28;21685;-84
2023/07/07 00:30:53;;;;;;;5.83;4.73;;;;;;;;;;5056682;28;20222;-81
2023/07/07 00:33:19;;;;;;;5.37;4.83;;;;;;;;;;5040863;28;20192;-80
2023/07/07 00:35:46;;;;;;;7.30;5.20;;;;;;;;;;5057561;28;20183;-81
2023/07/07 00:38:12;;;;;;;5.53;4.73;;;;;;;;;;5056150;28;20188;-81
2023/07/07 00:40:38;;;;;;;8.33;5.10;;;;;;;;;;5055563;28;20195;-81
2023/07/07 00:43:12;;;;;;;6.27;4.70;;;;;;;;;;5056262;28;20183;-81
2023/07/07 00:45:38;;;;;;;7.03;5.10;;;;;;;;;;5054462;28;20262;-81
2023/07/07 00:48:05;;;;;;;6.07;5.10;;;;;;;;;;5034484;28;20183;-83
2023/07/07 00:50:35;;;;;;;6.60;5.17;;;;;;;;;;5076216;28;20373;-84
2023/07/07 00:53:01;;;;;;;5.80;5.20;;;;;;;;;;5055785;28;20253;-84
2023/07/07 00:55:37;;;;;;;8.00;5.30;;;;;;;;;;5041759;28;20180;-84
2023/07/07 00:58:06;;;;;;;6.77;5.20;;;;;;;;;;5055713;28;20176;-84
2023/07/07 01:00:33;;;;;;;6.10;5.50;;;;;;;;;;5058487;28;20198;-84
2023/07/07 01:02:59;;;;;;;5.67;4.83;;;;;;;;;;5056139;28;20180;-84
2023/07/07 01:05:28;;;;;;;6.83;4.97;;;;;;;;;;5040773;28;20255;-84
2023/07/07 01:07:57;;;;;;;5.50;5.00;;;;;;;;;;5048144;28;20185;-84
2023/07/07 01:10:23;;;;;;;6.23;5.27;;;;;;;;;;5038215;28;20260;-83
2023/07/07 01:12:50;;;;;;;9.50;5.63;;;;;;;;;;5054946;28;20187;-83
2023/07/07 01:15:16;;;;;;;7.60;5.77;;;;;;;;;;5056153;28;20176;-83
2023/07/07 01:17:42;;;;;;;5.83;5.30;;;;;;;;;;5039784;28;20184;-84
2023/07/07 01:20:16;;;;;;;6.57;5.30;;;;;;;;;;5039494;28;20237;-81
2023/07/07 01:22:54;;;;;;;6.77;5.27;;;;;;;;;;5055756;28;20183;-81
2023/07/07 01:25:30;;;;;;;7.47;5.33;;;;;;;;;;5057794;28;20226;-81
2023/07/07 01:28:10;;;;;;;5.83;5.30;;;;;;;;;;5055176;28;20175;-81
2023/07/07 01:30:43;;;;;;;8.33;5.37;;;;;;;;;;5055297;28;20172;-81
2023/07/07 01:33:11;;;;;;;7.23;5.70;;;;;;;;;;5038311;28;20177;-81
2023/07/07 01:35:37;;;;;;;6.90;5.63;;;;;;;;;;5055743;28;20179;-81
2023/07/07 01:38:04;;;;;;;7.17;5.47;;;;;;;;;;5045034;28;20210;-83
2023/07/07 01:40:33;;;;;;;6.77;5.33;;;;;;;;;;5048728;28;20187;-83
2023/07/07 01:43:02;;;;;;;6.43;5.70;;;;;;;;;;5040643;28;20195;-83
2023/07/07 01:45:51;;;;;;;9.37;6.07;;;;;;;;;;5056654;28;20211;-83
2023/07/07 01:48:23;;;;;;;6.77;5.30;;;;;;;;;;5048139;28;20188;-83
2023/07/07 01:50:50;;;;;;;7.10;5.20;;;;;;;;;;5055130;28;20283;-83
2023/07/07 01:53:19;;;;;;;6.60;5.90;;;;;;;;;;5055001;28;20216;-83
2023/07/07 01:55:49;;;;;;;8.27;5.63;;;;;;;;;;5054957;28;20275;-86
2023/07/07 01:58:17;;;;;;;8.87;6.00;;;;;;;;;;5055904;28;20187;-86
2023/07/07 02:00:44;;;;;;;7.33;5.57;;;;;;;;;;5073676;28;20189;-86
2023/07/07 02:03:11;;;;;;;6.00;5.40;;;;;;;;;;5049920;28;20180;-87
2023/07/07 02:05:37;;;;;;;7.60;6.10;;;;;;;;;;5054309;23;20246;-76
2023/07/07 02:08:03;;;;;;;7.23;5.50;;;;;;;;;;5058574;28;20190;-76
2023/07/07 02:10:29;;;;;;;8.20;5.93;;;;;;;;;;5042167;28;20183;-76
2023/07/07 02:12:56;;;;;;;6.97;5.70;;;;;;;;;;5057425;28;20201;-76
2023/07/07 02:15:22;;;;;;;9.10;6.07;;;;;;;;;;5057936;28;20179;-76
2023/07/07 02:17:48;;;;;;;6.87;6.07;;;;;;;;;;5041547;28;20237;-76
2023/07/07 02:20:14;;;;;;;9.77;5.80;;;;;;;;;;5057359;28;20225;-76
2023/07/07 02:22:40;;;;;;;6.77;5.83;;;;;;;;;;5057458;28;20187;-76
2023/07/07 02:25:07;;;;;;;10.17;6.13;;;;;;;;;;5057657;28;20245;-76
2023/07/07 02:27:33;;;;;;;8.10;6.37;;;;;;;;;;5075425;28;20188;-79
2023/07/07 02:29:59;;;;;;;7.00;6.30;;;;;;;;;;5057464;28;20183;-79
2023/07/07 02:32:26;;;;;;;8.60;6.60;;;;;;;;;;5057597;28;20179;-79
2023/07/07 02:34:55;;;;;;;7.67;6.20;;;;;;;;;;5057725;28;20183;-79
2023/07/07 02:37:21;;;;;;;7.30;5.90;;;;;;;;;;5075232;28;20312;-79
2023/07/07 02:39:47;;;;;;;8.03;5.87;;;;;;;;;;5053261;28;20184;-79
2023/07/07 02:42:14;;;;;;;8.67;6.10;;;;;;;;;;5054528;28;20195;-79
2023/07/07 02:44:40;;;;;;;7.60;6.67;;;;;;;;;;5037947;28;20187;-79
2023/07/07 02:47:07;;;;;;;7.73;6.33;;;;;;;;;;5048005;28;20222;-79
2023/07/07 02:49:33;;;;;;;8.67;5.90;;;;;;;;;;5056993;28;20248;-79
2023/07/07 02:51:59;;;;;;;9.37;6.60;;;;;;;;;;5040514;28;20207;-79
2023/07/07 02:54:26;;;;;;;7.17;6.47;;;;;;;;;;5038045;28;20200;-81
2023/07/07 02:56:54;;;;;;;7.33;6.60;;;;;;;;;;5059366;28;20229;-80
2023/07/07 02:59:20;;;;;;;8.63;6.30;;;;;;;;;;5057457;28;20221;-80
2023/07/07 03:01:46;;;;;;;9.17;6.13;;;;;;;;;;5074562;28;20190;-89
2023/07/07 03:04:13;;;;;;;10.17;7.20;;;;;;;;;;5056912;28;20187;-89
2023/07/07 03:06:40;;;;;;;6.90;6.20;;;;;;;;;;5057638;28;20226;-89
2023/07/07 03:09:06;;;;;;;9.20;6.30;;;;;;;;;;5057043;28;20171;-89
2023/07/07 03:11:32;;;;;;;7.10;6.40;;;;;;;;;;5075085;28;20186;-89
2023/07/07 03:13:58;;;;;;;7.83;6.40;;;;;;;;;;5040368;28;20183;-89
2023/07/07 03:16:30;;;;;;;7.60;6.20;;;;;;;;;;5056787;28;20183;-88
2023/07/07 03:18:58;;;;;;;7.30;6.17;;;;;;;;;;5074321;28;20316;-80
2023/07/07 03:21:24;;;;;;;12.03;6.73;;;;;;;;;;5057100;28;20183;-80
2023/07/07 03:23:51;;;;;;;7.77;6.47;;;;;;;;;;5074298;28;20183;-80
2023/07/07 03:26:18;;;;;;;8.60;6.30;;;;;;;;;;5056605;28;20211;-80
2023/07/07 03:28:44;;;;;;;8.23;6.73;;;;;;;;;;5073458;28;20179;-80
2023/07/07 03:31:10;;;;;;;8.93;6.67;;;;;;;;;;5055784;28;20254;-80
2023/07/07 03:33:36;;;;;;;7.87;6.33;;;;;;;;;;5055267;28;20179;-82
2023/07/07 03:36:02;;;;;;;10.43;6.57;;;;;;;;;;5036827;28;20306;-82
2023/07/07 03:38:28;;;;;;;8.43;6.60;;;;;;;;;;5048285;28;20179;-82
2023/07/07 03:40:54;;;;;;;8.00;7.20;;;;;;;;;;5049482;28;20195;-82
2023/07/07 03:43:20;;;;;;;9.03;6.70;;;;;;;;;;5046077;28;20202;-82
2023/07/07 03:45:46;;;;;;;10.40;6.63;;;;;;;;;;5072766;28;20257;-82
2023/07/07 03:48:12;;;;;;;10.93;7.07;;;;;;;;;;5039285;28;20182;-82
2023/07/07 03:50:38;;;;;;;8.57;7.03;;;;;;;;;;5056615;28;20183;-82
2023/07/07 03:53:04;;;;;;;9.13;6.23;;;;;;;;;;5040138;28;20191;-82
2023/07/07 03:55:30;;;;;;;8.47;6.87;;;;;;;;;;5038824;28;20192;-82
2023/07/07 03:57:56;;;;;;;7.77;6.80;;;;;;;;;;5038296;28;20187;-82
2023/07/07 04:00:22;;;;;;;8.23;7.03;;;;;;;;;;5050339;28;20191;-82
2023/07/07 04:02:49;;;;;;;7.50;6.77;;;;;;;;;;5037763;28;20184;-82
2023/07/07 04:05:15;;;;;;;9.93;6.97;;;;;;;;;;5047019;28;20214;-82
2023/07/07 04:07:41;;;;;;;7.70;7.00;;;;;;;;;;5055354;28;20187;-77
2023/07/07 04:10:08;;;;;;;7.83;6.67;;;;;;;;;;5073814;28;20179;-77
2023/07/07 04:12:34;;;;;;;7.57;6.47;;;;;;;;;;5051543;28;20183;-77
2023/07/07 04:15:00;;;;;;;7.63;6.90;;;;;;;;;;5047294;28;20177;-77
2023/07/07 04:17:27;;;;;;;8.00;6.87;;;;;;;;;;5073259;28;20198;-77
2023/07/07 04:19:53;;;;;;;7.67;6.87;;;;;;;;;;5045964;28;20232;-77
2023/07/07 04:22:19;;;;;;;8.20;7.40;;;;;;;;;;5066756;28;20205;-77
2023/07/07 04:24:45;;;;;;;8.53;7.60;;;;;;;;;;5047447;28;20258;-77
2023/07/07 04:27:11;;;;;;;8.17;7.40;;;;;;;;;;5055696;28;20215;-77
2023/07/07 04:29:37;;;;;;;8.20;7.40;;;;;;;;;;5073522;28;20182;-77
2023/07/07 04:32:04;;;;;;;10.03;8.00;;;;;;;;;;5038684;28;20184;-77
2023/07/07 04:34:31;;;;;;;11.47;8.50;;;;;;;;;;5039569;28;20179;-77
2023/07/07 04:36:57;;;;;;;9.63;8.10;;;;;;;;;;5035635;28;20184;-77
2023/07/07 04:39:23;;;;;;;8.37;7.50;;;;;;;;;;5039057;28;20183;-78
2023/07/07 04:41:50;;;;;;;8.70;7.75;;;;;;;;;;5054404;28;20425;-82
2023/07/07 04:44:16;;;;;;;9.80;7.83;;;;;;;;;;5054499;28;20183;-82
2023/07/07 04:46:42;;;;;;;8.53;7.67;;;;;;;;;;5031815;28;20214;-82
2023/07/07 04:49:10;;;;;;;8.53;7.70;;;;;;;;;;5026573;28;20262;-82
2023/07/07 04:51:37;;;;;;;10.30;8.17;;;;;;;;;;5052116;28;20186;-82
2023/07/07 04:54:04;;;;;;;9.13;8.17;;;;;;;;;;5073491;28;20175;-82
2023/07/07 04:56:30;;;;;;;10.00;8.97;;;;;;;;;;5055990;28;20175;-82
2023/07/07 04:58:56;;;;;;;11.60;9.30;;;;;;;;;;5035552;28;20257;-76
2023/07/07 05:01:24;;;;;;;11.93;9.27;;;;;;;;;;5053405;28;20229;-77
2023/07/07 05:03:52;;;;;;;10.73;9.63;;;;;;;;;;5035809;28;20175;-77
2023/07/07 05:06:18;;;;;;;11.63;9.40;;;;;;;;;;5054680;28;20246;-76
2023/07/07 05:08:44;;;;;;;11.37;9.07;;;;;;;;;;5039570;28;20187;-77
2023/07/07 05:11:11;;;;;;;10.17;9.10;;;;;;;;;;5057332;28;20207;-77
2023/07/07 05:13:37;;;;;;;11.07;9.90;;;;;;;;;;5054228;28;20266;-82
2023/07/07 05:16:11;;;;;;;10.80;9.70;;;;;;;;;;5059520;28;20222;-82
2023/07/07 05:18:37;;;;;;;11.43;10.27;;;;;;;;;;5068393;28;20194;-81
2023/07/07 05:21:03;;;;;;;13.43;10.57;;;;;;;;;;5058483;28;20240;-82
2023/07/07 05:23:30;;;;;;;13.50;10.70;;;;;;;;;;5059486;28;20258;-82
2023/07/07 05:25:56;;;;;;;13.80;10.80;;;;;;;;;;5058380;28;20211;-82
2023/07/07 05:28:22;;;;;;;13.40;10.80;;;;;;;;;;5039176;28;20192;-82
2023/07/07 05:30:48;;;;;;;12.27;11.03;;;;;;;;;;5039157;28;20187;-82
2023/07/07 05:33:14;;;;;;;14.70;11.17;;;;;;;;;;5058525;28;20186;-81
2023/07/07 05:35:53;;;;;;;12.63;10.67;;;;;;;;;;5057160;28;20187;-81
2023/07/07 05:38:22;;;;;;;13.13;11.10;;;;;;;;;;5058874;28;20206;-81
2023/07/07 05:40:48;;;;;;;12.47;11.17;;;;;;;;;;5059279;28;20206;-81
2023/07/07 05:43:15;;;;;;;11.03;9.63;;;;;;;;;;5058684;28;20193;-81
2023/07/07 05:45:41;;;;;;;13.97;11.23;;;;;;;;;;5058504;28;20207;-81
2023/07/07 05:48:07;;;;;;;14.90;11.00;;;;;;;;;;5042655;28;20183;-81
2023/07/07 05:50:34;;;;;;;15.43;11.40;;;;;;;;;;5058840;28;20233;-81
2023/07/07 05:53:01;;;;;;;13.27;11.87;;;;;;;;;;5058781;28;20175;-81
2023/07/07 05:55:34;;;;;;;14.90;11.03;;;;;;;;;;5058005;28;20347;-81
2023/07/07 05:58:01;;;;;;;12.57;11.27;;;;;;;;;;5053714;28;20266;-82
2023/07/07 06:00:28;;;;;;;14.10;11.70;;;;;;;;;;5038288;28;20282;-82
2023/07/07 06:02:58;;;;;;;16.33;11.03;;;;;;;;;;5038336;28;20188;-81
2023/07/07 06:05:25;;;;;;;14.40;11.77;;;;;;;;;;5052357;28;20234;-77
2023/07/07 06:07:51;;;;;;;20.20;12.03;;;;;;;;;;5058169;28;20179;-78
2023/07/07 06:10:18;;;;;;;17.30;12.73;;;;;;;;;;5058105;28;20183;-78
2023/07/07 06:12:44;;;;;;;13.03;11.73;;;;;;;;;;5058686;28;20197;-78
2023/07/07 06:15:10;;;;;;;12.53;11.27;;;;;;;;;;5041573;28;20190;-77
2023/07/07 06:17:36;;;;;;;12.70;11.03;;;;;;;;;;5039124;28;20180;-77
2023/07/07 06:20:03;;;;;;;14.80;11.73;;;;;;;;;;5054663;28;20270;-81
2023/07/07 06:22:29;;;;;;;17.87;11.57;;;;;;;;;;5057900;28;20179;-82
2023/07/07 06:24:55;;;;;;;14.77;12.43;;;;;;;;;;5040905;28;20191;-82
2023/07/07 06:27:21;;;;;;;13.13;10.90;;;;;;;;;;5057598;28;20235;-82
2023/07/07 06:29:47;;;;;;;16.07;12.43;;;;;;;;;;5057917;28;20214;-82
2023/07/07 06:32:13;;;;;;;13.73;11.93;;;;;;;;;;5041270;28;20184;-82
2023/07/07 06:34:39;;;;;;;15.00;12.20;;;;;;;;;;5040876;28;20426;-82
2023/07/07 06:37:06;;;;;;;14.70;11.80;;;;;;;;;;5060731;28;20183;-77
2023/07/07 06:39:32;;;;;;;12.63;11.33;;;;;;;;;;5037584;28;20179;-77
2023/07/07 06:41:59;;;;;;;16.40;11.43;;;;;;;;;;5043045;28;20188;-77
2023/07/07 06:44:25;;;;;;;15.60;11.40;;;;;;;;;;5038560;28;20184;-78
2023/07/07 06:46:51;;;;;;;12.90;10.80;;;;;;;;;;5056947;28;20207;-78
2023/07/07 06:49:18;;;;;;;16.40;10.90;;;;;;;;;;5057477;28;20183;-77
2023/07/07 06:51:44;;;;;;;11.73;9.80;;;;;;;;;;5053813;28;20176;-77
2023/07/07 06:54:10;;;;;;;21.77;10.27;;;;;;;;;;5040481;28;20203;-82
2023/07/07 06:56:36;;;;;;;15.27;10.83;;;;;;;;;;5037083;28;20186;-82
2023/07/07 06:59:03;;;;;;;12.17;9.97;;;;;;;;;;5068793;28;20234;-82
2023/07/07 07:01:29;;;;;;;12.27;9.70;;;;;;;;;;5057500;28;20237;-82
2023/07/07 07:03:58;;;;;;;14.27;10.47;;;;;;;;;;5040707;28;20285;-82
2023/07/07 07:06:24;;;;;;;15.63;9.67;;;;;;;;;;5057082;28;20238;-81
2023/07/07 07:08:50;;;;;;;12.17;9.00;;;;;;;;;;5040214;28;20179;-81
2023/07/07 07:11:16;;;;;;;14.63;9.50;;;;;;;;;;5057188;28;20183;-77
2023/07/07 07:13:43;;;;;;;14.03;8.60;;;;;;;;;;5057143;28;20175;-77
2023/07/07 07:16:09;;;;;;;12.97;8.00;;;;;;;;;;5040421;28;20183;-77
2023/07/07 07:18:35;;;;;;;11.23;7.20;;;;;;;;;;5056299;28;20190;-77
2023/07/07 07:21:01;;;;;;;12.83;7.17;;;;;;;;;;5054749;28;20191;-78
2023/07/07 07:23:27;;;;;;;11.03;6.73;;;;;;;;;;5056256;28;20183;-78
2023/07/07 07:25:53;;;;;;;10.77;5.97;;;;;;;;;;5040156;28;20195;-78
2023/07/07 07:28:19;;;;;;;9.63;5.43;;;;;;;;;;5040070;28;20187;-82
2023/07/07 07:30:45;;;;;;;9.83;5.30;;;;;;;;;;5044463;28;20188;-83
2023/07/07 07:33:13;;;;;;;9.97;5.33;;;;;;;;;;5022802;28;20257;-83
2023/07/07 07:35:39;;;;;;;8.93;4.90;;;;;;;;;;5036916;28;20207;-84
2023/07/07 07:38:05;;;;;;;7.43;4.37;;;;;;;;;;5072577;28;20249;-83
2023/07/07 07:40:31;;;;;;;6.57;4.13;;;;;;;;;;5056541;28;20179;-83
2023/07/07 07:42:57;;;;;;;10.63;4.70;;;;;;;;;;5055145;28;20433;-83
2023/07/07 07:45:24;;;;;;;12.57;4.40;;;;;;;;;;5056126;28;20210;-79
2023/07/07 07:47:51;;;;;;;10.73;4.17;;;;;;;;;;5055859;28;20205;-78
2023/07/07 07:50:18;;;;;;;9.17;4.70;;;;;;;;;;5056572;28;20182;-79
2023/07/07 07:52:44;;;;;;;8.83;4.13;;;;;;;;;;5043977;28;20195;-79
2023/07/07 07:55:10;;;;;;;6.97;4.40;;;;;;;;;;5036769;28;20231;-79
2023/07/07 07:57:36;;;;;;;9.93;4.27;;;;;;;;;;5036175;28;20180;-79
2023/07/07 08:00:04;;;;;;;7.90;4.40;;;;;;;;;;5036575;28;20187;-79
2023/07/07 08:02:30;;;;;;;8.97;4.87;;;;;;;;;;5055201;28;20291;-79
2023/07/07 08:07:31;;;;;;;9.63;4.50;;;;;;;;;;5069217;28;20218;-82
2023/07/07 08:09:57;;;;;;;6.83;3.73;;;;;;;;;;5034842;28;20197;-81
2023/07/07 08:12:24;;;;;;;6.80;3.90;;;;;;;;;;5039302;28;20262;-81
2023/07/07 08:14:50;;;;;;;55.43;7.67;;;;;;;;;;5051206;28;20234;-82
2023/07/07 08:17:16;;;;;;;9.37;3.30;;;;;;;;;;5035809;28;20184;-83
2023/07/07 08:19:43;;;;;;;7.33;3.13;;;;;;;;;;5043791;28;20215;-83
2023/07/07 08:22:11;;;;;;;4.87;3.17;;;;;;;;;;5053452;28;20277;-83
2023/07/07 08:24:50;;;;;;;4.33;2.53;;;;;;;;;;5047416;28;20234;-83
2023/07/07 08:27:17;;;;;;;4.67;2.70;;;;;;;;;;5052927;28;20207;-83
2023/07/07 08:29:43;;;;;;;5.33;2.97;;;;;;;;;;5039033;28;20194;-84
2023/07/07 08:32:11;;;;;;;5.20;2.90;;;;;;;;;;5052640;28;20186;-83
2023/07/07 08:34:38;;;;;;;3.50;2.70;;;;;;;;;;5055506;28;20171;-85
2023/07/07 08:37:04;;;;;;;5.37;2.80;;;;;;;;;;5051875;28;20274;-85
2023/07/07 08:39:30;;;;;;;8.13;3.00;;;;;;;;;;5053684;28;20180;-84
2023/07/07 08:42:26;;;;;;;3.70;2.67;;;;;;;;;;5050442;28;20203;-84
2023/07/07 08:44:53;;;;;;;3.87;2.50;;;;;;;;;;5038732;28;20287;-85
2023/07/07 08:47:37;;;;;;;6.95;3.33;;;;;;;;;;5041042;28;20314;-85
2023/07/07 08:50:08;;;;;;;3.53;2.45;;;;;;;;;;5059878;28;20235;-84
2023/07/07 08:52:37;;;;;;;3.95;2.85;;;;;;;;;;5059349;28;20183;-84
2023/07/07 08:55:22;;;;;;;5.75;2.58;;;;;;;;;;5059494;28;20201;-85
2023/07/07 08:57:57;;;;;;;5.18;2.75;;;;;;;;;;5039522;28;20224;-85
2023/07/07 09:00:27;;;;;;;6.63;2.60;;;;;;;;;;5039372;28;20180;-85
2023/07/07 09:02:54;;;;;;;15.20;3.15;;;;;;;;;;5039340;28;20176;-85
2023/07/07 09:05:29;;;;;;;4.72;2.80;;;;;;;;;;5040259;28;20191;-85
2023/07/07 09:08:08;;;;;;;8.18;3.10;;;;;;;;;;5016346;28;20185;-82
2023/07/07 09:10:37;;;;;;;5.25;2.90;;;;;;;;;;5019540;28;20176;-82
2023/07/07 09:13:03;;;;;;;5.70;3.08;;;;;;;;;;5025645;28;20183;-82
2023/07/07 09:15:30;;;;;;;3.72;2.70;;;;;;;;;;5039039;28;20188;-82
2023/07/07 09:18:02;;;;;;;7.15;2.88;;;;;;;;;;5038911;28;20176;-83
2023/07/07 09:20:31;;;;;;;5.35;2.70;;;;;;;;;;5038863;28;20180;-82
2023/07/07 09:23:07;;;;;;;4.18;2.80;;;;;;;;;;5038970;28;20414;-82
2023/07/07 09:25:40;;;;;;;6.13;2.80;;;;;;;;;;5039211;28;20211;-82
2023/07/07 09:28:08;;;;;;;4.50;2.90;;;;;;;;;;5038908;28;20188;-83
2023/07/07 09:30:53;;;;;;;3.65;2.58;;;;;;;;;;5040319;28;20176;-82
2023/07/07 09:33:20;;;;;;;3.50;2.53;;;;;;;;;;5038127;28;20268;-82
2023/07/07 09:36:08;;;;;;;4.80;2.80;;;;;;;;;;5039138;28;20180;-81
2023/07/07 09:38:39;;;;;;;5.85;2.70;;;;;;;;;;5039401;28;20180;-80
2023/07/07 09:41:17;;;;;;;3.63;2.53;;;;;;;;;;5039289;28;20175;-78
2023/07/07 09:44:05;;;;;;;4.57;2.60;;;;;;;;;;5052494;28;20187;-78
2023/07/07 09:46:45;;;;;;;3.88;2.40;;;;;;;;;;5033758;28;20261;-77
2023/07/07 09:49:20;;;;;;;7.43;2.70;;;;;;;;;;5044060;28;20176;-78
2023/07/07 09:51:59;;;;;;;4.47;2.85;;;;;;;;;;5034532;28;20180;-78
2023/07/07 09:54:26;;;;;;;4.90;2.63;;;;;;;;;;5018129;28;20172;-78
2023/07/07 09:56:55;;;;;;;6.63;2.65;;;;;;;;;;5018621;28;20177;-78
2023/07/07 09:59:33;;;;;;;14.25;3.10;;;;;;;;;;5018495;28;20173;-78
2023/07/07 10:02:18;;;;;;;4.22;2.45;;;;;;;;;;5032687;28;20180;-78
2023/07/07 10:04:46;;;;;;;3.35;2.47;;;;;;;;;;5054533;28;20229;-78
2023/07/07 10:07:15;;;;;;;5.40;2.83;;;;;;;;;;5070772;28;20314;-78
2023/07/07 10:09:42;;;;;;;3.63;2.47;;;;;;;;;;5058402;28;20174;-78
2023/07/07 10:12:11;;;;;;;3.75;2.60;;;;;;;;;;5042092;28;20175;-79
2023/07/07 10:14:37;;;;;;;4.30;2.70;;;;;;;;;;5057903;28;20217;-83
2023/07/07 10:17:09;;;;;;;3.80;2.60;;;;;;;;;;5038408;28;20188;-83
2023/07/07 10:19:41;;;;;;;3.22;2.50;;;;;;;;;;5056146;28;20180;-83
2023/07/07 10:22:08;;;;;;;4.78;2.80;;;;;;;;;;5038074;28;20178;-83
2023/07/07 10:24:34;;;;;;;2.80;2.50;;;;;;;;;;5021626;28;20188;-85
2023/07/07 10:27:00;;;;;;;2.70;2.38;;;;;;;;;;5038123;28;20262;-84
2023/07/07 10:29:31;;;;;;;4.43;2.60;;;;;;;;;;5021718;28;20180;-84
2023/07/07 10:31:57;;;;;;;3.95;2.58;;;;;;;;;;5056249;28;20176;-83
2023/07/07 10:34:27;;;;;;;5.00;2.63;;;;;;;;;;5041574;28;20206;-84
2023/07/07 10:36:55;;;;;;;4.85;2.47;;;;;;;;;;5058186;28;20218;-83
2023/07/07 10:39:23;;;;;;;3.25;2.70;;;;;;;;;;5057426;28;20183;-83
2023/07/07 10:41:49;;;;;;;4.88;2.78;;;;;;;;;;5057338;28;20198;-84
2023/07/07 10:44:15;;;;;;;3.25;2.35;;;;;;;;;;5057939;28;20167;-83
2023/07/07 10:46:41;;;;;;;4.82;2.80;;;;;;;;;;5075253;28;20214;-83
2023/07/07 10:49:15;;;;;;;5.53;2.60;;;;;;;;;;5037290;28;20172;-82
2023/07/07 10:51:48;;;;;;;4.20;2.70;;;;;;;;;;5052680;28;20190;-82
2023/07/07 10:54:17;;;;;;;3.03;2.60;;;;;;;;;;5057246;28;20182;-82
2023/07/07 10:56:45;;;;;;;4.35;2.40;;;;;;;;;;5057730;28;20178;-82
2023/07/07 10:59:26;;;;;;;5.85;2.70;;;;;;;;;;5055029;28;20183;-82
2023/07/07 11:02:10;;;;;;;3.97;2.60;;;;;;;;;;5052953;28;20179;-82
2023/07/07 11:04:46;;;;;;;3.65;2.80;;;;;;;;;;5056304;28;20182;-81
2023/07/07 11:07:15;;;;;;;13.07;3.10;;;;;;;;;;5074580;28;20222;-81
2023/07/07 11:10:05;;;;;;;8.65;3.05;;;;;;;;;;5050970;28;20180;-81
2023/07/07 11:12:37;;;;;;;6.68;3.08;;;;;;;;;;5057226;28;20266;-81
2023/07/07 11:15:22;;;;;;;4.25;3.00;;;;;;;;;;5056924;28;20182;-82
2023/07/07 11:17:48;;;;;;;3.50;2.70;;;;;;;;;;5047613;28;20183;-82
2023/07/07 11:20:17;;;;;;;4.53;2.80;;;;;;;;;;5055539;28;20250;-83
2023/07/07 11:22:43;;;;;;;3.90;2.78;;;;;;;;;;5073575;28;20176;-87
2023/07/07 11:25:20;;;;;;;3.03;2.55;;;;;;;;;;5051781;28;20176;-84
2023/07/07 11:28:00;;;;;;;5.15;3.08;;;;;;;;;;5045857;28;20261;-84
2023/07/07 11:30:26;;;;;;;4.10;3.00;;;;;;;;;;5055257;28;20305;-83
2023/07/07 11:33:02;;;;;;;3.15;2.80;;;;;;;;;;5048403;28;20200;-84
2023/07/07 11:35:38;;;;;;;4.53;2.92;;;;;;;;;;5069575;28;20179;-85
2023/07/07 11:38:22;;;;;;;5.50;3.10;;;;;;;;;;5047947;28;20224;-84
2023/07/07 11:40:55;;;;;;;5.55;3.00;;;;;;;;;;5050778;28;20205;-84
2023/07/07 11:43:43;;;;;;;3.88;2.67;;;;;;;;;;5050124;28;20180;-84
2023/07/07 11:46:28;;;;;;;7.68;2.97;;;;;;;;;;5048533;28;20210;-84
2023/07/07 11:48:54;;;;;;;5.93;2.70;;;;;;;;;;5066520;28;20247;-85
2023/07/07 11:51:29;;;;;;;4.53;2.50;;;;;;;;;;5049685;28;20262;-84
2023/07/07 11:54:14;;;;;;;3.67;2.55;;;;;;;;;;5047275;28;20183;-79
2023/07/07 11:56:40;;;;;;;3.58;2.85;;;;;;;;;;5044427;28;20230;-79
2023/07/07 11:59:21;;;;;;;4.20;2.67;;;;;;;;;;5049715;28;20191;-79
2023/07/07 12:01:50;;;;;;;4.13;2.47;;;;;;;;;;5046980;28;20179;-79
2023/07/07 12:04:27;;;;;;;3.63;2.55;;;;;;;;;;5048758;28;20195;-79
2023/07/07 12:06:54;;;;;;;4.22;2.70;;;;;;;;;;5046465;28;20261;-79
2023/07/07 12:09:33;;;;;;;5.82;2.85;;;;;;;;;;5049268;28;20270;-78
2023/07/07 12:12:10;;;;;;;5.22;3.30;;;;;;;;;;5049500;28;20183;-85
2023/07/07 12:14:41;;;;;;;5.20;3.15;;;;;;;;;;5038722;28;20191;-85
2023/07/07 12:17:12;;;;;;;8.80;3.00;;;;;;;;;;5054395;28;20186;-84
2023/07/07 12:19:51;;;;;;;4.68;2.80;;;;;;;;;;5060158;28;20175;-85
2023/07/07 12:22:19;;;;;;;7.07;3.10;;;;;;;;;;5044984;28;20178;-84
2023/07/07 12:24:51;;;;;;;5.15;3.00;;;;;;;;;;5059727;28;20414;-83
2023/07/07 12:27:32;;;;;;;3.72;2.85;;;;;;;;;;5054397;28;20276;-79
2023/07/07 12:29:59;;;;;;;4.55;2.80;;;;;;;;;;5055375;28;20194;-79
2023/07/07 12:32:25;;;;;;;6.97;3.03;;;;;;;;;;5042914;28;20184;-79
2023/07/07 12:35:08;;;;;;;4.47;2.90;;;;;;;;;;5049211;28;20277;-80
2023/07/07 12:37:34;;;;;;;3.30;2.75;;;;;;;;;;5077704;28;20186;-79
2023/07/07 12:40:05;;;;;;;5.97;2.60;;;;;;;;;;5059386;28;20191;-80
2023/07/07 12:42:31;;;;;;;5.90;2.92;;;;;;;;;;5077363;28;20180;-79
2023/07/07 12:45:09;;;;;;;5.75;2.75;;;;;;;;;;5059095;28;20186;-83
2023/07/07 12:47:37;;;;;;;3.63;2.92;;;;;;;;;;5059000;28;20245;-84
2023/07/07 12:50:07;;;;;;;5.10;2.92;;;;;;;;;;5059218;28;20181;-82
2023/07/07 12:52:42;;;;;;;3.72;2.70;;;;;;;;;;5040377;28;20176;-82
2023/07/07 12:55:26;;;;;;;6.03;3.10;;;;;;;;;;5039709;28;20229;-83
2023/07/07 12:58:01;;;;;;;3.88;2.75;;;;;;;;;;5047197;28;20171;-81
2023/07/07 13:00:29;;;;;;;4.65;2.88;;;;;;;;;;5067923;28;20175;-78
2023/07/07 13:02:56;;;;;;;5.45;2.80;;;;;;;;;;5039482;28;20168;-78
2023/07/07 13:05:23;;;;;;;4.97;3.28;;;;;;;;;;5057002;28;20164;-80
2023/07/07 13:07:59;;;;;;;5.40;3.10;;;;;;;;;;5048391;28;20188;-78
2023/07/07 13:10:41;;;;;;;5.18;2.90;;;;;;;;;;5039192;28;20175;-78
2023/07/07 13:13:19;;;;;;;4.53;2.75;;;;;;;;;;5058472;28;20183;-78
2023/07/07 13:15:45;;;;;;;4.22;2.53;;;;;;;;;;5058230;28;20203;-78
2023/07/07 13:18:13;;;;;;;8.38;3.10;;;;;;;;;;5058658;28;20194;-81
2023/07/07 13:20:40;;;;;;;4.30;2.83;;;;;;;;;;5041499;28;20191;-81
2023/07/07 13:23:21;;;;;;;7.45;2.80;;;;;;;;;;5046313;28;20203;-81
2023/07/07 13:25:47;;;;;;;7.72;3.17;;;;;;;;;;5048198;28;20476;-81
2023/07/07 13:28:15;;;;;;;3.88;2.88;;;;;;;;;;5057633;28;20171;-80
2023/07/07 13:30:42;;;;;;;4.40;2.70;;;;;;;;;;5057515;28;20425;-81
2023/07/07 13:33:11;;;;;;;4.38;2.90;;;;;;;;;;5058250;28;20229;-81
2023/07/07 13:35:40;;;;;;;3.58;2.90;;;;;;;;;;5059338;28;20175;-86
2023/07/07 13:38:08;;;;;;;4.10;2.70;;;;;;;;;;5059107;28;20221;-86
2023/07/07 13:40:35;;;;;;;3.58;2.72;;;;;;;;;;5076391;28;20175;-87
2023/07/07 13:43:01;;;;;;;3.63;2.88;;;;;;;;;;5041871;28;20184;-85
2023/07/07 13:45:27;;;;;;;5.07;3.15;;;;;;;;;;5033121;28;20184;-86
2023/07/07 13:47:54;;;;;;;4.97;2.50;;;;;;;;;;5072354;28;20184;-86
2023/07/07 13:50:25;;;;;;;5.25;2.80;;;;;;;;;;5038684;28;20172;-78
2023/07/07 13:52:59;;;;;;;5.05;2.78;;;;;;;;;;5056276;28;20196;-77
2023/07/07 13:55:35;;;;;;;4.55;2.63;;;;;;;;;;5039142;28;20178;-79
2023/07/07 13:58:02;;;;;;;5.82;2.72;;;;;;;;;;5038484;28;20262;-78
2023/07/07 14:00:36;;;;;;;4.95;2.85;;;;;;;;;;5056110;28;20232;-78
2023/07/07 14:03:03;;;;;;;4.68;2.63;;;;;;;;;;5056481;28;20191;-78
2023/07/07 14:05:32;;;;;;;3.67;2.58;;;;;;;;;;5053801;23;20232;-76
2023/07/07 14:07:58;;;;;;;4.00;3.13;;;;;;;;;;5051366;28;20193;-81
2023/07/07 14:10:35;;;;;;;2.88;2.45;;;;;;;;;;5035747;28;20176;-81
2023/07/07 14:13:03;;;;;;;5.28;2.50;;;;;;;;;;5051735;28;20180;-84
2023/07/07 14:15:36;;;;;;;2.97;2.58;;;;;;;;;;5051208;28;20230;-84
2023/07/07 14:18:04;;;;;;;3.15;2.60;;;;;;;;;;5035205;28;20271;-84
2023/07/07 14:20:34;;;;;;;6.82;2.40;;;;;;;;;;5034557;28;20177;-85
2023/07/07 14:23:00;;;;;;;5.00;2.70;;;;;;;;;;5036158;28;20168;-84
2023/07/07 14:25:26;;;;;;;5.68;2.70;;;;;;;;;;5034670;28;20177;-78
2023/07/07 14:27:57;;;;;;;3.35;2.67;;;;;;;;;;5018352;28;20180;-78
2023/07/07 14:30:24;;;;;;;4.88;2.90;;;;;;;;;;5035182;28;20172;-78
2023/07/07 14:32:54;;;;;;;6.25;3.10;;;;;;;;;;5033952;28;20413;-79
2023/07/07 14:35:24;;;;;;;4.72;2.53;;;;;;;;;;5034196;28;20200;-79
2023/07/07 14:37:53;;;;;;;6.07;2.72;;;;;;;;;;5035502;28;20169;-79
2023/07/07 14:40:30;;;;;;;3.95;2.58;;;;;;;;;;5030525;28;20173;-84
2023/07/07 14:42:57;;;;;;;5.07;2.55;;;;;;;;;;5022460;28;20172;-84
2023/07/07 14:45:35;;;;;;;24.55;3.80;;;;;;;;;;5034151;28;20460;-83
2023/07/07 14:48:01;;;;;;;6.32;3.13;;;;;;;;;;5030065;28;20188;-84
2023/07/07 14:50:28;;;;;;;6.78;2.65;;;;;;;;;;5017622;28;20169;-83
2023/07/07 14:52:56;;;;;;;4.03;2.67;;;;;;;;;;5014713;28;20185;-83